Results by/Résultats par Info:[email protected] Phone: (613)260-0994

                                     K-TOWN TRIATHLON
                    
                                  Sunday July 31st, 2005

                           Confederation Park, Kingston, Ontario

                                Overall Results - Duathlon

  -----FINAL----- ----------------------- ------------ -------------------- ----            4km                         30 km                   7.2 km         
                                                       Category                     ------RUN + T1--------    ----------BIKE--------    -------RUN + T2------- ------
    Pos     Time  Name                    City         Plc/Total Category     #      Cat  Ovr  Time     km     Cat Ovr Time  km/hr      Cat  Ovr  Time     km  Penalty
  ------  ------- ----------------------- ------------ -------------------- ----    ----------------------    ----------------------    ---------------------- ------
    1     1:29:26 Brent MCMILLAN          Ottawa         1/3   Elite Men     519    1      1   13:51  3:28    2      5   48:00  37.5     1      1   27:36  3:50         
    2     1:30:45 Simon REE               Kingston       1/6   M30 - 34      528    1      2   14:36  3:39    1      1   47:08  38.2     1      2   29:02  4:02         
    3     1:34:16 James LAYFIELD          Miss           2/3   Elite Men     570    3      5   15:27  3:52    1      4   47:55  37.6     2     10   30:55  4:18         
    4     1:34:23 Bob TYSEN               Kingston       1/12  M45 - 49      525    2     12   16:33  4:09    1      2   47:20  38.0     1      8   30:31  4:15         
    5     1:35:02 Jonathan MONCRIEFF      Toronto        2/6   M30 - 34      569    2      3   14:46  3:42    2     10   50:14  35.8     3      5   30:02  4:11         
    6     1:35:56 Tim GILLESPIE           Kingston       1/3   M25 - 29      551    1      7   15:43  3:56    2     11   50:36  35.6     1      3   29:37  4:07         
    7     1:37:28 Lashley GERRY           Toronto        1/8   M35 - 39      556    1      9   15:57  4:00    1     12   50:43  35.5     1      9   30:49  4:17         
    8     1:37:42 Rob DROUGHAN            Toronto        2/12  M45 - 49      539    3     15   16:37  4:10    2      6   48:27  37.2     3     17   32:39  4:33         
    9     1:38:11 SPEEDY GONSALVES        Kingston       1/11  M40 - 44      582    1     13   16:34  4:09    2      9   50:05  35.9     1     13   31:33  4:23         
   10     1:38:31 Mike WEST               Kingston       2/3   M25 - 29      532    2     27   17:47  4:27    1      3   47:48  37.7     2     18   32:56  4:35         
   11     1:38:57 Jeff WALSH              Belleville     3/6   M30 - 34      526    3      8   15:54  3:59    4     20   53:23  33.7     2      4   29:42  4:08         
   12     1:39:53 Trevor TOVELL           Windsor        1/2   Junior Men    574    1      6   15:34  3:54    1     24   53:52  33.4     1      7   30:28  4:14         
   13     1:39:58 Shari BOYLE             Toronto        1/2   Elite Women   599    1     10   16:06  4:02    1     22   53:45  33.5     1      6   30:08  4:12         
   14     1:40:33 Allan ANDERSON          Ottawa         3/12  M45 - 49      538    1     11   16:27  4:07    4     15   52:35  34.2     2     12   31:33  4:23         
   15     1:41:02 William LEGERE          Kingston       2/11  M40 - 44      522    4     29   18:20  4:35    1      8   49:41  36.2     2     19   33:01  4:36         
   16     1:41:55 Jeffrey MINICOLA        Peterborough   4/12  M45 - 49      575    5     20   16:58  4:15    3      7   49:40  36.2     7     31   35:18  4:55         
   17     1:43:29 Paula HICKMAN           Ottawa         2/2   Elite Women   585    2     19   16:48  4:12    2     33   55:36  32.4     2     11   31:06  4:20         
   18     1:43:49 Graham ROSS             Merrickville   3/11  M40 - 44      555    2     17   16:38  4:10    3     14   52:29  34.3     3     26   34:42  4:50         
   19     1:44:20 Dan WILLEMSE            Bath           2/8   M35 - 39      591    2     26   17:42  4:26    5     26   54:38  32.9     2     15   32:01  4:27         
   20     1:44:26 Suzan RIBENBOIM         Simpsonville   1/5   W40 - 44      513    1     25   17:41  4:26    1     18   53:04  33.9     1     21   33:42  4:41         
   21     1:45:27 James STANLEY           Toronto        5/12  M45 - 49      592    4     18   16:45  4:12    6     31   55:32  32.4     4     20   33:10  4:37         
   22     1:47:19 Jeff EISEN              Midhurst       4/6   M30 - 34      510    5     32   18:43  4:41    3     17   52:55  34.0     5     33   35:43  4:58         
   23     1:47:40 Paul WHITE              London         1/6   M50 - 54      523    2     31   18:39  4:40    1     16   52:46  34.1     2     37   36:16  5:03         
   24     1:47:52 Shawn MCGUIRE           North york     3/8   M35 - 39      543    4     38   19:01  4:46    3     19   53:23  33.7     3     32   35:30  4:56         
   25     1:47:58 Neil HOPKINS            Kingston       5/6   M30 - 34      547    4     16   16:38  4:10    5     43   57:36  31.2     4     23   33:45  4:42         
   26     1:48:08 Emily KLASSEN           Kingston       1/4   Junior Women  563    1     22   17:29  4:23    2     48   58:43  30.7     1     14   31:57  4:27         
   27     1:49:33 Peter KINGSTON          Kingston       6/12  M45 - 49      508    9     44   19:18  4:50    5     29   55:04  32.7     6     30   35:11  4:54         
   28     1:49:38 Marvin CORREA           Kingston       4/8   M35 - 39      550    5     48   19:42  4:56    2     13   51:49  34.7     4     43   38:08  5:18         
   29     1:49:45 Brian R CAMPBELL        St.Catharine   1/5   M55 - 59      533    1     37   18:59  4:45    2     34   55:38  32.4     1     29   35:09  4:53         
   30     1:50:03 Daniel DEBRIE           Kingston       7/12  M45 - 49      583    6     24   17:32  4:23    12    50   58:49  30.6     5     22   33:43  4:41         
   31     1:50:05 Andrew STANLEY          Toronto        2/2   Junior Men    593    2     14   16:36  4:09    2     68 1:01:26  29.3     2     16   32:05  4:28         
   32     1:50:21 Jennie AITKEN           Kingston       2/4   Junior Women  578    2     35   18:52  4:43    1     32   55:35  32.4     2     35   35:55  5:00         
   33     1:51:10 Bill TRENHAILE          Newburgh       8/12  M45 - 49      534    7     28   18:07  4:32    8     41   57:20  31.4     8     34   35:44  4:58         
   34     1:51:39 Michelle JACKMAN        Kingston       1/3   W30 - 34      549    1     57   20:32  5:08    1     36   56:13  32.0     1     27   34:55  4:51         
   35     1:51:53 Diane PORTEOUS          Kingston       1/3   W50 - 54      560    1     49   19:54  4:59    1     28   54:53  32.8     1     41   37:07  5:10         
   36     1:52:08 Walt SEPIC              Kingston       2/6   M50 - 54      558    1     21   17:25  4:22    5     60 1:00:20  29.8     1     24   34:25  4:47         
   37     1:52:12 Joan SCIBETTA           Brewerton      2/5   W40 - 44      554    2     36   18:53  4:44    2     40   56:59  31.6     4     38   36:21  5:03         
   38     1:52:26 Paul GAVEL              Bracebridge    2/5   M55 - 59      506    2     45   19:28  4:52    1     23   53:51  33.4     3     49   39:08  5:27         
   39     1:52:46 Gabrielle DENOBLE       Frankford      3/5   W40 - 44      581    4     41   19:06  4:47    3     49   58:43  30.7     2     28   34:58  4:52         
   40     1:53:32 Tim THOMPSON            Nepean         5/8   M35 - 39      501    6     55   20:25  5:07    4     25   54:06  33.3     5     48   39:02  5:26         
   41     1:53:51 Tim MCMICHAEL           Kingston       4/11  M40 - 44      566    6     43   19:17  4:50    4     30   55:17  32.6     6     52   39:18  5:28         
   42     1:54:05 Michael KELLY           Belleville     6/8   M35 - 39      586    3     30   18:27  4:37    6     38   56:25  31.9     7     51   39:14  5:27         
   43     1:54:46 Ian CRAWFORD            Kingston       3/6   M50 - 54      521    4     52   20:07  5:02    3     35   55:49  32.2     4     46   38:51  5:24         
   44     1:54:56 Edd FERGUSON            Bath           3/5   M55 - 59      517    3     64   21:16  5:19    3     39   56:34  31.8     2     40   37:07  5:10         
   45     1:55:29 Julie STEWART           Toronto        4/5   W40 - 44      594    3     40   19:03  4:46    4     59 1:00:19  29.8     3     36   36:08  5:02         
   46     1:56:17 Sharon VOTEARY          Belleville     1/5   W45 - 49      548    1     34   18:49  4:43    2     72 1:02:56  28.6     1     25   34:34  4:48         
   47     1:56:58 Mark WEBSTER            Ogdensburg     9/12  M45 - 49      576    10    50   19:54  4:59    10    45   58:13  30.9     9     47   38:52  5:24         
   48     1:57:14 Colleen CAMERON         Nepean         1/5   W20 - 24      500    2     53   20:09  5:03    1     42   57:30  31.3     2     54   39:36  5:30         
   49     1:57:19 Jeff WINTERS            Kingston       5/11  M40 - 44      512    3     23   17:31  4:23    8     66 1:01:07  29.5     5     45   38:42  5:23         
   50     1:57:26 Steve SILLS             Komoka         6/11  M40 - 44      561    5     42   19:10  4:48    5     51   58:57  30.5     7     53   39:20  5:28         
   51     1:57:49 Barry MCKAIG            London        10/12  M45 - 49      541    8     33   18:46  4:42    11    47   58:31  30.8     10    56   40:33  5:38         
   52     1:58:24 Brian LEWIS             Kingston      11/12  M45 - 49      589    11    61   20:59  5:15    7     37   56:23  31.9     11    60   41:02  5:42         
   53     1:58:40 Marieke HEAD            Ancaster       2/5   W20 - 24      562    4     59   20:40  5:10    2     57   59:52  30.1     1     44   38:09  5:18         
   54     1:58:53 Jim PORTEOUS            Kingston       4/6   M50 - 54      559    6     65   21:20  5:20    2     27   54:46  32.9     5     58   40:48  5:40    2:00 
   55     1:59:06 Ian PRESS               Stirling       7/8   M35 - 39      546    8     69   21:36  5:24    7     46   58:22  30.8     6     50   39:09  5:27         
   56     1:59:46 Tim KINGSTON            Inverary       5/6   M50 - 54      552    3     47   19:40  4:55    6     70 1:02:39  28.7     3     42   37:27  5:13         
   57     2:00:31 Robert GILROY           Toronto        7/11  M40 - 44      537    10    70   21:58  5:30    9     69 1:01:31  29.3     4     39   37:03  5:09         
   58     2:00:57 George TAYLOR           Yarker         8/8   M35 - 39      502    7     58   20:35  5:09    8     62 1:00:26  29.8     8     55   39:57  5:33         
   59     2:01:03 Colleen LYNCH           Kingston       3/5   W20 - 24      597    1     39   19:02  4:46    3     65 1:00:40  29.7     3     61   41:22  5:45         
   60     2:01:54 Jane ARMSTRONG          Kanata         2/3   W50 - 54      580    2     71   22:03  5:31    2     53   59:03  30.5     2     57   40:48  5:40         
   61     2:02:37 Bob KLASSEN             Kingston       6/6   M50 - 54      542    5     62   21:13  5:19    4     56   59:32  30.2     6     63   41:53  5:49         
   62     2:02:44 Jeremy SIMPSON          Kingston       6/6   M30 - 34      598    6     63   21:14  5:19    6     54   59:04  30.5     6     65   42:26  5:54         
   63     2:04:06 Chris OUIMET            Kingston       3/3   M25 - 29      588    3     68   21:33  5:24    3     58 1:00:08  29.9     3     64   42:26  5:54         
   64     2:05:19 Michael MAGILL          Kingston       8/11  M40 - 44      516    9     66   21:21  5:21    6     52   58:57  30.5     10    73   45:02  6:16         
   65     2:05:29 Danny ROSE              Belleville     9/11  M40 - 44      507    8     60   20:50  5:13    10    76 1:03:45  28.2     8     59   40:56  5:41         
   66     2:05:43 Sarah LELIEVRE          Kingston       1/2   W25 - 29      587    1     51   20:02  5:01    1     67 1:01:14  29.4     1     71   44:29  6:11         
   67     2:05:45 Ed COHEN                Toronto        4/5   M55 - 59      596    4     67   21:26  5:22    4     64 1:00:33  29.7     4     69   43:47  6:05         
   68     2:05:58 Richard KUNOW           Oakville      10/11  M40 - 44      511    11    78   23:48  5:57    7     61 1:00:25  29.8     9     62   41:46  5:48         
   69     2:06:15 Silvano TOFFOLON        Kingston      12/12  M45 - 49      573    12    77   23:43  5:56    9     44   57:49  31.1     12    72   44:45  6:13         
   70     2:07:15 Kathy MACKENZIE         Kingston       4/5   W20 - 24      529    3     54   20:13  5:04    4     75 1:03:42  28.3     4     68   43:20  6:02         
   71     2:08:51 Sheila KINGSTON         Kingston       3/3   W50 - 54      503    3     74   23:06  5:47    3     71 1:02:49  28.7     3     67   42:58  5:58         
   72     2:09:55 Lisa BINKLEY            Kingston       1/2   W35 - 39      527    1     76   23:32  5:53    1     63 1:00:31  29.7     2     76   45:53  6:23         
   73     2:09:57 Anthony CROCKFORD       Kingston       1/1   M20 - 24      567    1     56   20:26  5:07    1     81 1:05:31  27.5     1     70   44:00  6:07         
   74     2:11:24 Cindy SHORT             Lake Placid    2/5   W45 - 49      518    2     79   24:06  6:02    4     79 1:04:23  28.0     2     66   42:56  5:58         
   75     2:12:13 Chantal SABOURIN        Kingston       5/5   W20 - 24      568    5     73   22:59  5:45    5     77 1:04:05  28.1     5     74   45:10  6:17         
   76     2:12:18 Frank LARUE             Gatineau       1/2   M60 - 64      524    1     80   24:10  6:03    1     21   53:30  33.6     1     82   54:39  7:36         
   77 CLY 2:12:52 Kristina PATTERSON      Thomasburg     2/2   W35 - 39      579    2     81   24:34  6:09    2     73 1:03:04  28.5     1     75   45:14  6:17         
   78     2:17:47 Shirley LINDENBERG      Belleville     3/5   W45 - 49      553    4     84   25:59  6:30    1     55   59:17  30.4     3     80   52:33  7:18         
   79 CLY 2:18:57 Maggie LUCAS            Trenton        2/3   W30 - 34      536    2     82   24:53  6:14    2     82 1:06:15  27.2     2     78   47:51  6:39         
   80     2:19:23 Dennis DOHERTY          Kingston       1/1   W65 - 69      504    1     72   22:47  5:42    1     83 1:09:35  25.9     1     77   47:02  6:32         
   81     2:21:39 Fran CRAWFORD           Kingston       4/5   W45 - 49      520    3     83   25:25  6:22    3     74 1:03:16  28.5     4     81   52:59  7:22         
   82     2:26:07 Dave RICE               Roslin         2/2   M60 - 64      509    2     85   26:24  6:36    2     80 1:04:47  27.8     2     83   54:57  7:38         
   83 CLY 2:30:17 Cheryl RUNIONS          Cobourg        5/5   W40 - 44      577    5     88   28:06  7:02    5     78 1:04:10  28.1     5     86   58:01  8:04         
   84     2:33:41 Bronwyn WILSON          Unionville     3/4   Junior Women  564    3     75   23:13  5:49    3     88 1:22:16  21.9     3     79   48:13  6:42         
   85     2:33:52 Tammy KUEHN             Yarker         3/3   W30 - 34      505    3     86   26:45  6:42    3     84 1:12:04  25.0     3     84   55:04  7:39         
   86     2:42:52 Denise KERR             Kingston       5/5   W45 - 49      535    5     87   27:03  6:46    5     87 1:18:16  23.0     5     85   57:34  8:00         
   87     2:43:13 Mike WALKER             Kingston       5/5   M55 - 59      557    5     89   29:21  7:21    5     86 1:14:25  24.2     5     87   59:28  8:16         
   88 CLY 2:45:38 Jaimie CLARKE           Kingston       2/2   W25 - 29      540    2     91   30:56  7:44    2     85 1:12:33  24.8     2     88 1:02:11  8:39         
   89     3:01:33 Nikki RESHKE            Kingston       4/4   Junior Women  595    4     90   30:19  7:35    4     89 1:27:34  20.6     4     89 1:03:41  8:51         
   90 DNF         Nicholas NEWELL         Ottawa         3/3   Elite Men     590    2      4   15:08  3:47                                                              
   91 DNF         Vincent Andy FONG       Kanata        11/11  M40 - 44      545    7     46   19:39  4:55